sensor_id;sensor_type;location;lat;lon;timestamp;pressure;altitude;pressure_sealevel;temperature;humidity
64080;BME280;51042;49.696;10.808;2023-04-07T00:00:47;98522.06;;;1.52;89.18
64080;BME280;51042;49.696;10.808;2023-04-07T00:03:12;98515.88;;;1.48;89.94
64080;BME280;51042;49.696;10.808;2023-04-07T00:05:38;98522.00;;;1.45;90.90
64080;BME280;51042;49.696;10.808;2023-04-07T00:08:03;98515.44;;;1.43;91.53
64080;BME280;51042;49.696;10.808;2023-04-07T00:10:28;98517.28;;;1.39;90.37
64080;BME280;51042;49.696;10.808;2023-04-07T00:12:54;98516.13;;;1.36;91.03
64080;BME280;51042;49.696;10.808;2023-04-07T00:15:19;98525.31;;;1.32;91.64
64080;BME280;51042;49.696;10.808;2023-04-07T00:17:45;98517.53;;;1.23;92.43
64080;BME280;51042;49.696;10.808;2023-04-07T00:20:10;98517.47;;;1.19;92.93
64080;BME280;51042;49.696;10.808;2023-04-07T00:22:36;98518.22;;;1.16;92.74
64080;BME280;51042;49.696;10.808;2023-04-07T00:25:01;98516.22;;;1.10;93.31
64080;BME280;51042;49.696;10.808;2023-04-07T00:27:27;98510.72;;;1.03;93.45
64080;BME280;51042;49.696;10.808;2023-04-07T00:29:52;98509.59;;;1.04;93.90
64080;BME280;51042;49.696;10.808;2023-04-07T00:32:19;98507.63;;;1.01;93.59
64080;BME280;51042;49.696;10.808;2023-04-07T00:34:45;98506.06;;;1.00;93.44
64080;BME280;51042;49.696;10.808;2023-04-07T00:37:10;98514.47;;;0.91;93.34
64080;BME280;51042;49.696;10.808;2023-04-07T00:39:36;98502.41;;;0.85;94.95
64080;BME280;51042;49.696;10.808;2023-04-07T00:42:02;98498.91;;;0.81;95.66
64080;BME280;51042;49.696;10.808;2023-04-07T00:44:28;98500.81;;;0.80;96.47
64080;BME280;51042;49.696;10.808;2023-04-07T00:46:53;98498.50;;;0.79;97.80
64080;BME280;51042;49.696;10.808;2023-04-07T00:49:19;98491.53;;;0.78;98.64
64080;BME280;51042;49.696;10.808;2023-04-07T00:51:44;98486.91;;;0.78;98.78
64080;BME280;51042;49.696;10.808;2023-04-07T00:54:10;98491.53;;;0.78;99.55
64080;BME280;51042;49.696;10.808;2023-04-07T00:56:36;98486.88;;;0.75;99.80
64080;BME280;51042;49.696;10.808;2023-04-07T00:59:02;98485.28;;;0.70;100.00
64080;BME280;51042;49.696;10.808;2023-04-07T01:01:30;98485.66;;;0.72;100.00
64080;BME280;51042;49.696;10.808;2023-04-07T01:04:08;98480.66;;;0.71;99.79
64080;BME280;51042;49.696;10.808;2023-04-07T01:06:39;98482.94;;;0.69;98.82
64080;BME280;51042;49.696;10.808;2023-04-07T01:09:33;98476.34;;;0.66;99.95
64080;BME280;51042;49.696;10.808;2023-04-07T01:14:49;98471.63;;;0.60;100.00
64080;BME280;51042;49.696;10.808;2023-04-07T01:17:16;98471.59;;;0.56;99.88
64080;BME280;51042;49.696;10.808;2023-04-07T01:19:46;98466.63;;;0.58;100.00
64080;BME280;51042;49.696;10.808;2023-04-07T01:22:16;98468.22;;;0.63;100.00
64080;BME280;51042;49.696;10.808;2023-04-07T01:30:47;98478.66;;;0.98;98.27
64080;BME280;51042;49.696;10.808;2023-04-07T01:33:15;98474.09;;;1.05;97.59
64080;BME280;51042;49.696;10.808;2023-04-07T01:35:41;98474.13;;;1.09;98.40
64080;BME280;51042;49.696;10.808;2023-04-07T01:38:08;98472.56;;;1.08;97.71
64080;BME280;51042;49.696;10.808;2023-04-07T01:40:35;98476.06;;;1.08;97.27
64080;BME280;51042;49.696;10.808;2023-04-07T01:43:03;98467.94;;;1.08;98.37
64080;BME280;51042;49.696;10.808;2023-04-07T01:45:30;98466.78;;;1.06;98.95
64080;BME280;51042;49.696;10.808;2023-04-07T01:47:59;98468.25;;;1.00;100.00
64080;BME280;51042;49.696;10.808;2023-04-07T01:50:25;98465.13;;;0.98;100.00
64080;BME280;51042;49.696;10.808;2023-04-07T01:52:53;98450.84;;;0.97;100.00
64080;BME280;51042;49.696;10.808;2023-04-07T01:55:20;98456.25;;;0.97;100.00
64080;BME280;51042;49.696;10.808;2023-04-07T01:57:45;98459.72;;;0.98;100.00
64080;BME280;51042;49.696;10.808;2023-04-07T02:00:11;98465.91;;;0.98;100.00
64080;BME280;51042;49.696;10.808;2023-04-07T02:02:38;98463.91;;;0.92;100.00
64080;BME280;51042;49.696;10.808;2023-04-07T02:05:06;98461.97;;;0.89;100.00
64080;BME280;51042;49.696;10.808;2023-04-07T02:07:38;98453.44;;;0.87;100.00
64080;BME280;51042;49.696;10.808;2023-04-07T02:10:07;98459.19;;;0.85;100.00
64080;BME280;51042;49.696;10.808;2023-04-07T02:12:36;98447.63;;;0.85;100.00
64080;BME280;51042;49.696;10.808;2023-04-07T02:15:03;98455.34;;;0.82;100.00
64080;BME280;51042;49.696;10.808;2023-04-07T02:17:30;98447.94;;;0.79;100.00
64080;BME280;51042;49.696;10.808;2023-04-07T02:19:58;98450.63;;;0.76;100.00
64080;BME280;51042;49.696;10.808;2023-04-07T02:22:26;98447.50;;;0.74;100.00
64080;BME280;51042;49.696;10.808;2023-04-07T02:24:52;98448.19;;;0.67;100.00
64080;BME280;51042;49.696;10.808;2023-04-07T02:27:18;98452.78;;;0.63;100.00
64080;BME280;51042;49.696;10.808;2023-04-07T02:29:44;98449.31;;;0.63;100.00
64080;BME280;51042;49.696;10.808;2023-04-07T02:32:10;98450.81;;;0.60;100.00
64080;BME280;51042;49.696;10.808;2023-04-07T02:34:35;98456.94;;;0.57;100.00
64080;BME280;51042;49.696;10.808;2023-04-07T02:37:01;98455.81;;;0.58;100.00
64080;BME280;51042;49.696;10.808;2023-04-07T02:39:27;98447.72;;;0.58;100.00
64080;BME280;51042;49.696;10.808;2023-04-07T02:41:52;98447.75;;;0.62;100.00
64080;BME280;51042;49.696;10.808;2023-04-07T02:44:17;98447.41;;;0.67;100.00
64080;BME280;51042;49.696;10.808;2023-04-07T02:46:43;98444.78;;;0.70;100.00
64080;BME280;51042;49.696;10.808;2023-04-07T02:49:08;98449.44;;;0.73;100.00
64080;BME280;51042;49.696;10.808;2023-04-07T02:51:34;98446.38;;;0.78;100.00
64080;BME280;51042;49.696;10.808;2023-04-07T02:53:59;98443.75;;;0.82;100.00
64080;BME280;51042;49.696;10.808;2023-04-07T02:56:24;98450.66;;;0.79;100.00
64080;BME280;51042;49.696;10.808;2023-04-07T02:58:50;98449.16;;;0.82;100.00
64080;BME280;51042;49.696;10.808;2023-04-07T03:01:15;98444.59;;;0.90;100.00
64080;BME280;51042;49.696;10.808;2023-04-07T03:03:40;98454.31;;;0.94;100.00
64080;BME280;51042;49.696;10.808;2023-04-07T03:06:08;98445.00;;;0.92;100.00
64080;BME280;51042;49.696;10.808;2023-04-07T03:08:34;98445.41;;;0.94;100.00
64080;BME280;51042;49.696;10.808;2023-04-07T03:10:59;98442.72;;;0.94;99.99
64080;BME280;51042;49.696;10.808;2023-04-07T03:13:25;98447.78;;;0.99;100.00
64080;BME280;51042;49.696;10.808;2023-04-07T03:15:50;98445.88;;;1.03;100.00
64080;BME280;51042;49.696;10.808;2023-04-07T03:18:15;98438.63;;;1.07;100.00
64080;BME280;51042;49.696;10.808;2023-04-07T03:20:41;98445.59;;;1.11;100.00
64080;BME280;51042;49.696;10.808;2023-04-07T03:23:06;98437.13;;;1.13;100.00
64080;BME280;51042;49.696;10.808;2023-04-07T03:25:32;98435.59;;;1.15;100.00
64080;BME280;51042;49.696;10.808;2023-04-07T03:27:57;98435.19;;;1.13;100.00
64080;BME280;51042;49.696;10.808;2023-04-07T03:30:23;98433.59;;;1.09;100.00
64080;BME280;51042;49.696;10.808;2023-04-07T03:32:49;98432.09;;;1.11;99.24
64080;BME280;51042;49.696;10.808;2023-04-07T03:35:14;98427.41;;;1.08;99.48
64080;BME280;51042;49.696;10.808;2023-04-07T03:37:39;98429.38;;;1.11;97.85
64080;BME280;51042;49.696;10.808;2023-04-07T03:40:05;98427.47;;;1.12;95.83
64080;BME280;51042;49.696;10.808;2023-04-07T03:42:30;98427.91;;;1.17;95.40
64080;BME280;51042;49.696;10.808;2023-04-07T03:44:55;98425.63;;;1.23;95.53
64080;BME280;51042;49.696;10.808;2023-04-07T03:47:21;98424.53;;;1.31;95.52
64080;BME280;51042;49.696;10.808;2023-04-07T03:49:46;98413.44;;;1.40;94.82
64080;BME280;51042;49.696;10.808;2023-04-07T03:52:12;98414.22;;;1.44;94.10
64080;BME280;51042;49.696;10.808;2023-04-07T03:54:37;98416.97;;;1.47;92.82
64080;BME280;51042;49.696;10.808;2023-04-07T03:57:02;98412.34;;;1.51;92.90
64080;BME280;51042;49.696;10.808;2023-04-07T03:59:28;98416.63;;;1.56;92.91
64080;BME280;51042;49.696;10.808;2023-04-07T04:01:53;98415.91;;;1.59;91.74
64080;BME280;51042;49.696;10.808;2023-04-07T04:04:18;98417.47;;;1.60;92.25
64080;BME280;51042;49.696;10.808;2023-04-07T04:06:44;98417.47;;;1.63;93.03
64080;BME280;51042;49.696;10.808;2023-04-07T04:09:09;98414.03;;;1.67;92.63
64080;BME280;51042;49.696;10.808;2023-04-07T04:11:34;98413.69;;;1.75;93.31
64080;BME280;51042;49.696;10.808;2023-04-07T04:14:00;98420.69;;;1.80;92.44
64080;BME280;51042;49.696;10.808;2023-04-07T04:16:25;98416.09;;;1.84;92.17
64080;BME280;51042;49.696;10.808;2023-04-07T04:18:51;98413.75;;;1.86;91.13
64080;BME280;51042;49.696;10.808;2023-04-07T04:21:16;98422.22;;;1.81;89.82
64080;BME280;51042;49.696;10.808;2023-04-07T04:23:41;98414.00;;;1.63;90.90
64080;BME280;51042;49.696;10.808;2023-04-07T04:26:07;98413.91;;;1.49;92.60
64080;BME280;51042;49.696;10.808;2023-04-07T04:28:32;98423.88;;;1.41;92.32
64080;BME280;51042;49.696;10.808;2023-04-07T04:30:57;98419.19;;;1.38;92.42
64080;BME280;51042;49.696;10.808;2023-04-07T04:33:23;98415.34;;;1.36;93.42
64080;BME280;51042;49.696;10.808;2023-04-07T04:35:48;98402.97;;;1.35;93.66
64080;BME280;51042;49.696;10.808;2023-04-07T04:38:13;98403.75;;;1.39;92.54
64080;BME280;51042;49.696;10.808;2023-04-07T04:40:39;98412.28;;;1.44;92.20
64080;BME280;51042;49.696;10.808;2023-04-07T04:43:05;98412.69;;;1.43;93.94
64080;BME280;51042;49.696;10.808;2023-04-07T04:45:31;98415.75;;;1.41;94.38
64080;BME280;51042;49.696;10.808;2023-04-07T04:47:57;98416.56;;;1.45;94.36
64080;BME280;51042;49.696;10.808;2023-04-07T04:50:22;98415.06;;;1.51;94.51
64080;BME280;51042;49.696;10.808;2023-04-07T04:52:47;98410.44;;;1.55;95.39
64080;BME280;51042;49.696;10.808;2023-04-07T04:55:13;98410.81;;;1.50;95.66
64080;BME280;51042;49.696;10.808;2023-04-07T04:57:38;98413.91;;;1.52;94.56
64080;BME280;51042;49.696;10.808;2023-04-07T05:00:04;98412.41;;;1.58;93.54
64080;BME280;51042;49.696;10.808;2023-04-07T05:02:31;98418.63;;;1.62;93.90
64080;BME280;51042;49.696;10.808;2023-04-07T05:04:57;98424.88;;;1.70;93.98
64080;BME280;51042;49.696;10.808;2023-04-07T05:07:22;98418.78;;;1.84;93.18
64080;BME280;51042;49.696;10.808;2023-04-07T05:09:48;98418.44;;;1.92;92.30
64080;BME280;51042;49.696;10.808;2023-04-07T05:12:14;98408.03;;;1.98;92.53
64080;BME280;51042;49.696;10.808;2023-04-07T05:14:40;98412.63;;;2.66;90.59
64080;BME280;51042;49.696;10.808;2023-04-07T05:17:05;98412.78;;;3.37;82.43
64080;BME280;51042;49.696;10.808;2023-04-07T05:19:30;98408.53;;;3.54;80.99
64080;BME280;51042;49.696;10.808;2023-04-07T05:21:56;98411.63;;;3.66;80.86
64080;BME280;51042;49.696;10.808;2023-04-07T05:24:22;98419.38;;;3.79;81.50
64080;BME280;51042;49.696;10.808;2023-04-07T05:26:47;98415.47;;;3.83;81.06
64080;BME280;51042;49.696;10.808;2023-04-07T05:29:12;98417.81;;;3.60;81.12
64080;BME280;51042;49.696;10.808;2023-04-07T05:31:37;98408.50;;;3.18;83.50
64080;BME280;51042;49.696;10.808;2023-04-07T05:34:04;98415.03;;;2.93;86.15
64080;BME280;51042;49.696;10.808;2023-04-07T05:36:29;98412.25;;;2.75;88.00
64080;BME280;51042;49.696;10.808;2023-04-07T05:38:55;98414.16;;;2.60;90.71
64080;BME280;51042;49.696;10.808;2023-04-07T05:41:21;98414.91;;;2.50;91.93
64080;BME280;51042;49.696;10.808;2023-04-07T05:43:46;98412.94;;;2.43;92.29
64080;BME280;51042;49.696;10.808;2023-04-07T05:46:11;98423.00;;;2.46;93.58
64080;BME280;51042;49.696;10.808;2023-04-07T05:48:36;98419.19;;;2.58;92.41
64080;BME280;51042;49.696;10.808;2023-04-07T05:51:02;98420.31;;;2.54;91.89
64080;BME280;51042;49.696;10.808;2023-04-07T05:53:27;98420.72;;;2.56;89.68
64080;BME280;51042;49.696;10.808;2023-04-07T05:55:53;98423.84;;;2.61;88.30
64080;BME280;51042;49.696;10.808;2023-04-07T05:58:18;98422.31;;;2.67;85.49
64080;BME280;51042;49.696;10.808;2023-04-07T06:00:44;98425.03;;;2.74;86.57
64080;BME280;51042;49.696;10.808;2023-04-07T06:03:09;98419.31;;;2.97;86.78
64080;BME280;51042;49.696;10.808;2023-04-07T06:05:35;98422.06;;;3.15;85.67
64080;BME280;51042;49.696;10.808;2023-04-07T06:08:00;98415.44;;;3.02;87.14
64080;BME280;51042;49.696;10.808;2023-04-07T06:10:25;98422.03;;;3.01;86.42
64080;BME280;51042;49.696;10.808;2023-04-07T06:12:51;98417.78;;;3.14;86.42
64080;BME280;51042;49.696;10.808;2023-04-07T06:15:16;98420.13;;;3.29;86.31
64080;BME280;51042;49.696;10.808;2023-04-07T06:17:42;98419.75;;;3.52;85.74
64080;BME280;51042;49.696;10.808;2023-04-07T06:20:09;98418.97;;;3.84;83.91
64080;BME280;51042;49.696;10.808;2023-04-07T06:22:35;98413.53;;;3.94;83.61
64080;BME280;51042;49.696;10.808;2023-04-07T06:25:00;98415.06;;;4.06;83.62
64080;BME280;51042;49.696;10.808;2023-04-07T06:27:26;98410.41;;;4.06;82.72
64080;BME280;51042;49.696;10.808;2023-04-07T06:29:51;98422.03;;;4.21;83.17
64080;BME280;51042;49.696;10.808;2023-04-07T06:32:16;98429.00;;;4.11;83.22
64080;BME280;51042;49.696;10.808;2023-04-07T06:34:42;98419.34;;;4.10;82.56
64080;BME280;51042;49.696;10.808;2023-04-07T06:37:08;98423.94;;;4.24;81.91
64080;BME280;51042;49.696;10.808;2023-04-07T06:39:33;98416.53;;;4.35;80.65
64080;BME280;51042;49.696;10.808;2023-04-07T06:41:58;98418.88;;;4.30;80.69
64080;BME280;51042;49.696;10.808;2023-04-07T06:44:25;98412.25;;;4.45;80.31
64080;BME280;51042;49.696;10.808;2023-04-07T06:46:51;98414.91;;;4.63;78.07
64080;BME280;51042;49.696;10.808;2023-04-07T06:49:17;98409.41;;;4.73;78.90
64080;BME280;51042;49.696;10.808;2023-04-07T06:51:43;98414.34;;;5.00;76.33
64080;BME280;51042;49.696;10.808;2023-04-07T06:54:09;98411.25;;;4.94;75.72
64080;BME280;51042;49.696;10.808;2023-04-07T06:56:38;98405.81;;;4.90;75.24
64080;BME280;51042;49.696;10.808;2023-04-07T06:59:07;98404.59;;;5.06;74.96
64080;BME280;51042;49.696;10.808;2023-04-07T07:01:32;98408.03;;;5.10;74.62
64080;BME280;51042;49.696;10.808;2023-04-07T07:03:58;98408.13;;;4.96;74.79
64080;BME280;51042;49.696;10.808;2023-04-07T07:06:25;98409.28;;;4.94;73.94
64080;BME280;51042;49.696;10.808;2023-04-07T07:08:51;98410.38;;;5.08;73.99
64080;BME280;51042;49.696;10.808;2023-04-07T07:11:16;98414.94;;;5.28;72.38
64080;BME280;51042;49.696;10.808;2023-04-07T07:13:42;98407.94;;;5.27;72.04
64080;BME280;51042;49.696;10.808;2023-04-07T07:16:09;98412.06;;;5.46;72.19
64080;BME280;51042;49.696;10.808;2023-04-07T07:18:34;98411.66;;;5.51;72.41
64080;BME280;51042;49.696;10.808;2023-04-07T07:21:00;98412.66;;;5.71;72.04
64080;BME280;51042;49.696;10.808;2023-04-07T07:23:26;98403.25;;;6.21;70.56
64080;BME280;51042;49.696;10.808;2023-04-07T07:25:51;98410.09;;;6.36;68.40
64080;BME280;51042;49.696;10.808;2023-04-07T07:28:16;98406.25;;;6.67;69.53
64080;BME280;51042;49.696;10.808;2023-04-07T07:30:42;98408.41;;;6.79;67.16
64080;BME280;51042;49.696;10.808;2023-04-07T07:33:07;98412.34;;;6.75;67.87
64080;BME280;51042;49.696;10.808;2023-04-07T07:35:33;98409.38;;;6.96;68.04
64080;BME280;51042;49.696;10.808;2023-04-07T07:37:58;98412.81;;;7.27;66.76
64080;BME280;51042;49.696;10.808;2023-04-07T07:40:23;98420.75;;;7.18;66.09
64080;BME280;51042;49.696;10.808;2023-04-07T07:42:48;98415.34;;;7.14;66.80
64080;BME280;51042;49.696;10.808;2023-04-07T07:45:14;98410.22;;;7.20;66.16
64080;BME280;51042;49.696;10.808;2023-04-07T07:47:41;98418.09;;;7.14;65.96
64080;BME280;51042;49.696;10.808;2023-04-07T07:50:06;98415.22;;;7.21;66.67
64080;BME280;51042;49.696;10.808;2023-04-07T07:52:32;98418.28;;;7.00;67.57
64080;BME280;51042;49.696;10.808;2023-04-07T07:54:57;98423.97;;;6.82;67.34
64080;BME280;51042;49.696;10.808;2023-04-07T07:57:23;98418.91;;;6.81;67.69
64080;BME280;51042;49.696;10.808;2023-04-07T07:59:48;98421.28;;;6.79;67.69
64080;BME280;51042;49.696;10.808;2023-04-07T08:02:13;98415.91;;;6.72;68.25
64080;BME280;51042;49.696;10.808;2023-04-07T08:04:39;98415.47;;;7.04;67.45
64080;BME280;51042;49.696;10.808;2023-04-07T08:07:04;98417.97;;;7.21;64.69
64080;BME280;51042;49.696;10.808;2023-04-07T08:09:30;98409.03;;;7.21;62.94
64080;BME280;51042;49.696;10.808;2023-04-07T08:11:58;98409.94;;;7.37;62.18
64080;BME280;51042;49.696;10.808;2023-04-07T08:14:23;98413.19;;;7.56;60.73
64080;BME280;51042;49.696;10.808;2023-04-07T08:16:49;98415.63;;;7.97;60.01
64080;BME280;51042;49.696;10.808;2023-04-07T08:19:14;98412.78;;;8.24;57.32
64080;BME280;51042;49.696;10.808;2023-04-07T08:21:40;98420.41;;;8.12;58.17
64080;BME280;51042;49.696;10.808;2023-04-07T08:24:05;98417.97;;;8.18;58.59
64080;BME280;51042;49.696;10.808;2023-04-07T08:26:31;98413.22;;;8.22;56.57
64080;BME280;51042;49.696;10.808;2023-04-07T08:28:57;98415.63;;;8.16;58.69
64080;BME280;51042;49.696;10.808;2023-04-07T08:31:22;98415.69;;;8.36;57.43
64080;BME280;51042;49.696;10.808;2023-04-07T08:33:48;98414.16;;;8.75;57.53
64080;BME280;51042;49.696;10.808;2023-04-07T08:36:17;98416.44;;;9.48;56.27
64080;BME280;51042;49.696;10.808;2023-04-07T08:38:43;98412.19;;;9.79;54.83
64080;BME280;51042;49.696;10.808;2023-04-07T08:41:10;98413.63;;;10.00;52.57
64080;BME280;51042;49.696;10.808;2023-04-07T08:43:37;98418.25;;;9.87;53.83
64080;BME280;51042;49.696;10.808;2023-04-07T08:46:04;98419.81;;;9.88;52.30
64080;BME280;51042;49.696;10.808;2023-04-07T08:48:30;98416.84;;;9.14;53.58
64080;BME280;51042;49.696;10.808;2023-04-07T08:51:00;98415.22;;;9.17;55.14
64080;BME280;51042;49.696;10.808;2023-04-07T08:53:32;98411.22;;;9.54;52.82
64080;BME280;51042;49.696;10.808;2023-04-07T08:56:02;98409.41;;;9.15;53.44
64080;BME280;51042;49.696;10.808;2023-04-07T08:58:30;98413.72;;;9.48;53.33
64080;BME280;51042;49.696;10.808;2023-04-07T09:00:55;98410.91;;;9.68;54.04
64080;BME280;51042;49.696;10.808;2023-04-07T09:03:24;98405.13;;;10.11;53.65
64080;BME280;51042;49.696;10.808;2023-04-07T09:05:50;98409.16;;;10.06;53.43
64080;BME280;51042;49.696;10.808;2023-04-07T09:08:16;98409.78;;;9.98;53.05
64080;BME280;51042;49.696;10.808;2023-04-07T09:10:41;98414.41;;;10.17;53.76
64080;BME280;51042;49.696;10.808;2023-04-07T09:13:06;98412.66;;;10.93;53.38
64080;BME280;51042;49.696;10.808;2023-04-07T09:15:32;98412.69;;;11.57;52.07
64080;BME280;51042;49.696;10.808;2023-04-07T09:17:57;98410.94;;;11.50;51.75
64080;BME280;51042;49.696;10.808;2023-04-07T09:20:23;98396.53;;;11.71;51.67
64080;BME280;51042;49.696;10.808;2023-04-07T09:22:49;98400.16;;;11.81;51.21
64080;BME280;51042;49.696;10.808;2023-04-07T09:25:21;98398.41;;;11.62;50.08
64080;BME280;51042;49.696;10.808;2023-04-07T09:28:00;98397.91;;;12.01;49.00
64080;BME280;51042;49.696;10.808;2023-04-07T09:30:27;98397.44;;;11.56;49.51
64080;BME280;51042;49.696;10.808;2023-04-07T09:32:54;98396.41;;;11.62;50.31
64080;BME280;51042;49.696;10.808;2023-04-07T09:35:19;98397.75;;;11.58;49.94
64080;BME280;51042;49.696;10.808;2023-04-07T09:37:59;98396.38;;;12.00;48.09
64080;BME280;51042;49.696;10.808;2023-04-07T09:40:26;98392.25;;;12.17;48.64
64080;BME280;51042;49.696;10.808;2023-04-07T09:42:51;98388.09;;;12.35;46.79
64080;BME280;51042;49.696;10.808;2023-04-07T09:45:23;98387.16;;;11.94;47.39
64080;BME280;51042;49.696;10.808;2023-04-07T09:47:52;98390.03;;;12.47;46.95
64080;BME280;51042;49.696;10.808;2023-04-07T09:50:34;98381.00;;;11.90;46.87
64080;BME280;51042;49.696;10.808;2023-04-07T09:53:03;98382.34;;;12.20;48.63
64080;BME280;51042;49.696;10.808;2023-04-07T09:55:28;98380.38;;;12.42;45.23
64080;BME280;51042;49.696;10.808;2023-04-07T09:57:54;98382.22;;;11.89;46.18
64080;BME280;51042;49.696;10.808;2023-04-07T10:00:20;98377.91;;;12.22;46.28
64080;BME280;51042;49.696;10.808;2023-04-07T10:02:45;98371.44;;;12.82;45.53
64080;BME280;51042;49.696;10.808;2023-04-07T10:05:12;98372.69;;;13.52;45.26
64080;BME280;51042;49.696;10.808;2023-04-07T10:07:37;98372.44;;;12.97;44.65
64080;BME280;51042;49.696;10.808;2023-04-07T10:10:03;98376.09;;;12.94;43.74
64080;BME280;51042;49.696;10.808;2023-04-07T10:12:32;98377.09;;;12.78;45.65
64080;BME280;51042;49.696;10.808;2023-04-07T10:14:58;98367.13;;;11.94;45.85
64080;BME280;51042;49.696;10.808;2023-04-07T10:17:25;98363.63;;;11.68;45.68
64080;BME280;51042;49.696;10.808;2023-04-07T10:19:52;98376.19;;;11.56;47.00
64080;BME280;51042;49.696;10.808;2023-04-07T10:22:20;98370.66;;;11.94;47.35
64080;BME280;51042;49.696;10.808;2023-04-07T10:24:54;98372.09;;;12.42;45.84
64080;BME280;51042;49.696;10.808;2023-04-07T10:27:28;98368.47;;;13.78;43.42
64080;BME280;51042;49.696;10.808;2023-04-07T10:29:58;98369.28;;;14.06;42.93
64080;BME280;51042;49.696;10.808;2023-04-07T10:32:24;98362.06;;;14.63;41.89
64080;BME280;51042;49.696;10.808;2023-04-07T10:37:17;98364.03;;;14.81;40.63
64080;BME280;51042;49.696;10.808;2023-04-07T10:39:45;98372.81;;;14.34;41.68
64080;BME280;51042;49.696;10.808;2023-04-07T10:45:01;98356.22;;;14.24;42.30
64080;BME280;51042;49.696;10.808;2023-04-07T10:47:27;98364.38;;;14.64;41.90
64080;BME280;51042;49.696;10.808;2023-04-07T10:50:13;98364.53;;;14.52;42.44
64080;BME280;51042;49.696;10.808;2023-04-07T10:52:39;98365.53;;;14.91;42.22
64080;BME280;51042;49.696;10.808;2023-04-07T11:03:30;98369.13;;;14.64;41.16
64080;BME280;51042;49.696;10.808;2023-04-07T11:06:05;98367.28;;;14.52;42.92
64080;BME280;51042;49.696;10.808;2023-04-07T11:08:36;98361.41;;;14.86;42.24
64080;BME280;51042;49.696;10.808;2023-04-07T11:11:01;98360.94;;;14.79;42.17
64080;BME280;51042;49.696;10.808;2023-04-07T11:13:43;98357.28;;;14.73;42.80
64080;BME280;51042;49.696;10.808;2023-04-07T11:16:10;98360.38;;;14.56;42.95
64080;BME280;51042;49.696;10.808;2023-04-07T11:18:37;98359.00;;;14.24;43.55
64080;BME280;51042;49.696;10.808;2023-04-07T11:21:03;98358.06;;;14.00;42.78
64080;BME280;51042;49.696;10.808;2023-04-07T11:23:38;98354.34;;;13.58;45.19
64080;BME280;51042;49.696;10.808;2023-04-07T11:26:05;98359.16;;;13.94;43.93
64080;BME280;51042;49.696;10.808;2023-04-07T11:28:32;98353.78;;;13.99;43.59
64080;BME280;51042;49.696;10.808;2023-04-07T11:30:58;98360.06;;;13.32;44.27
64080;BME280;51042;49.696;10.808;2023-04-07T11:33:28;98355.22;;;13.45;45.34
64080;BME280;51042;49.696;10.808;2023-04-07T11:35:55;98358.84;;;13.92;42.58
64080;BME280;51042;49.696;10.808;2023-04-07T11:38:26;98348.88;;;13.94;43.12
64080;BME280;51042;49.696;10.808;2023-04-07T11:40:53;98350.25;;;14.26;43.03
64080;BME280;51042;49.696;10.808;2023-04-07T11:43:21;98350.41;;;14.50;42.64
64080;BME280;51042;49.696;10.808;2023-04-07T11:46:09;98355.31;;;14.27;42.61
64080;BME280;51042;49.696;10.808;2023-04-07T11:48:37;98357.63;;;14.56;43.83
64080;BME280;51042;49.696;10.808;2023-04-07T11:51:04;98357.31;;;14.54;42.88
64080;BME280;51042;49.696;10.808;2023-04-07T11:53:31;98354.88;;;14.29;43.76
64080;BME280;51042;49.696;10.808;2023-04-07T11:58:34;98356.22;;;13.97;44.50
64080;BME280;51042;49.696;10.808;2023-04-07T12:01:01;98355.75;;;13.89;44.87
64080;BME280;51042;49.696;10.808;2023-04-07T12:03:30;98353.19;;;14.22;44.29
64080;BME280;51042;49.696;10.808;2023-04-07T12:05:58;98352.72;;;14.15;43.94
64080;BME280;51042;49.696;10.808;2023-04-07T12:08:36;98350.84;;;14.30;44.73
64080;BME280;51042;49.696;10.808;2023-04-07T12:11:08;98345.50;;;14.26;44.74
64080;BME280;51042;49.696;10.808;2023-04-07T12:13:37;98347.97;;;14.15;44.84
64080;BME280;51042;49.696;10.808;2023-04-07T12:16:03;98350.09;;;13.93;45.24
64080;BME280;51042;49.696;10.808;2023-04-07T12:18:28;98347.75;;;13.55;45.76
64080;BME280;51042;49.696;10.808;2023-04-07T12:20:54;98345.75;;;13.65;46.24
64080;BME280;51042;49.696;10.808;2023-04-07T12:23:20;98351.25;;;13.46;46.47
64080;BME280;51042;49.696;10.808;2023-04-07T12:25:46;98344.59;;;13.35;46.29
64080;BME280;51042;49.696;10.808;2023-04-07T12:28:11;98344.03;;;13.40;47.03
64080;BME280;51042;49.696;10.808;2023-04-07T12:30:37;98351.81;;;13.41;46.70
64080;BME280;51042;49.696;10.808;2023-04-07T12:33:02;98347.94;;;13.21;46.89
64080;BME280;51042;49.696;10.808;2023-04-07T12:35:28;98355.47;;;12.98;46.91
64080;BME280;51042;49.696;10.808;2023-04-07T12:37:54;98359.44;;;12.97;47.66
64080;BME280;51042;49.696;10.808;2023-04-07T12:40:20;98353.53;;;13.08;47.44
64080;BME280;51042;49.696;10.808;2023-04-07T12:42:46;98350.84;;;12.95;47.25
64080;BME280;51042;49.696;10.808;2023-04-07T12:45:12;98354.88;;;13.03;47.07
64080;BME280;51042;49.696;10.808;2023-04-07T12:47:37;98349.31;;;12.94;47.56
64080;BME280;51042;49.696;10.808;2023-04-07T12:50:02;98351.88;;;12.80;47.78
64080;BME280;51042;49.696;10.808;2023-04-07T12:52:28;98348.84;;;12.65;47.91
64080;BME280;51042;49.696;10.808;2023-04-07T12:54:53;98350.63;;;12.50;47.97
64080;BME280;51042;49.696;10.808;2023-04-07T12:57:19;98346.81;;;12.35;48.35
64080;BME280;51042;49.696;10.808;2023-04-07T12:59:44;98350.09;;;12.42;48.05
64080;BME280;51042;49.696;10.808;2023-04-07T13:02:09;98348.16;;;12.30;48.51
64080;BME280;51042;49.696;10.808;2023-04-07T13:04:37;98350.47;;;12.32;48.28
64080;BME280;51042;49.696;10.808;2023-04-07T13:07:04;98355.66;;;12.30;48.39
64080;BME280;51042;49.696;10.808;2023-04-07T13:09:30;98351.59;;;12.21;49.01
64080;BME280;51042;49.696;10.808;2023-04-07T13:11:55;98353.44;;;12.15;48.94
64080;BME280;51042;49.696;10.808;2023-04-07T13:14:21;98350.44;;;12.10;49.42
64080;BME280;51042;49.696;10.808;2023-04-07T13:16:47;98349.75;;;12.18;49.50